sensor_id;sensor_type;location;lat;lon;timestamp;pressure;altitude;pressure_sealevel;temperature;humidity
46241;BME280;31961;52.416;-0.732;2023-02-22T00:01:28;100355.87;;;2.44;100.00
46241;BME280;31961;52.416;-0.732;2023-02-22T00:03:55;100354.04;;;2.67;100.00
46241;BME280;31961;52.416;-0.732;2023-02-22T00:06:22;100348.20;;;3.00;100.00
46241;BME280;31961;52.416;-0.732;2023-02-22T00:08:49;100346.95;;;3.04;100.00
46241;BME280;31961;52.416;-0.732;2023-02-22T00:11:17;100347.84;;;3.61;100.00
46241;BME280;31961;52.416;-0.732;2023-02-22T00:13:44;100341.98;;;3.46;100.00
46241;BME280;31961;52.416;-0.732;2023-02-22T00:16:13;100344.21;;;3.31;100.00
46241;BME280;31961;52.416;-0.732;2023-02-22T00:18:41;100338.13;;;3.56;100.00
46241;BME280;31961;52.416;-0.732;2023-02-22T00:21:09;100322.72;;;4.20;100.00
46241;BME280;31961;52.416;-0.732;2023-02-22T00:23:41;100316.49;;;4.09;100.00
46241;BME280;31961;52.416;-0.732;2023-02-22T00:26:08;100317.19;;;3.38;100.00
46241;BME280;31961;52.416;-0.732;2023-02-22T00:28:35;100308.58;;;4.38;100.00
46241;BME280;31961;52.416;-0.732;2023-02-22T00:31:04;100302.46;;;4.82;100.00
46241;BME280;31961;52.416;-0.732;2023-02-22T00:33:32;100301.01;;;4.96;100.00
46241;BME280;31961;52.416;-0.732;2023-02-22T00:35:59;100300.70;;;3.39;100.00
46241;BME280;31961;52.416;-0.732;2023-02-22T00:38:28;100305.39;;;3.27;100.00
46241;BME280;31961;52.416;-0.732;2023-02-22T00:40:55;100306.47;;;3.84;100.00
46241;BME280;31961;52.416;-0.732;2023-02-22T00:43:22;100307.70;;;4.67;100.00
46241;BME280;31961;52.416;-0.732;2023-02-22T00:45:50;100304.63;;;4.55;100.00
46241;BME280;31961;52.416;-0.732;2023-02-22T00:48:17;100289.86;;;5.38;100.00
46241;BME280;31961;52.416;-0.732;2023-02-22T00:50:44;100290.90;;;5.15;100.00
46241;BME280;31961;52.416;-0.732;2023-02-22T00:53:11;100294.92;;;3.76;100.00
46241;BME280;31961;52.416;-0.732;2023-02-22T00:55:39;100296.50;;;4.61;100.00
46241;BME280;31961;52.416;-0.732;2023-02-22T00:58:07;100297.85;;;3.33;100.00
46241;BME280;31961;52.416;-0.732;2023-02-22T01:00:37;100295.15;;;4.14;100.00
46241;BME280;31961;52.416;-0.732;2023-02-22T01:03:05;100295.39;;;4.44;100.00
46241;BME280;31961;52.416;-0.732;2023-02-22T01:05:33;100289.62;;;4.50;100.00
46241;BME280;31961;52.416;-0.732;2023-02-22T01:08:02;100286.32;;;4.25;100.00
46241;BME280;31961;52.416;-0.732;2023-02-22T01:10:31;100280.84;;;4.88;100.00
46241;BME280;31961;52.416;-0.732;2023-02-22T01:12:59;100280.92;;;4.65;100.00
46241;BME280;31961;52.416;-0.732;2023-02-22T01:15:28;100273.86;;;5.04;100.00
46241;BME280;31961;52.416;-0.732;2023-02-22T01:17:57;100264.64;;;5.27;100.00
46241;BME280;31961;52.416;-0.732;2023-02-22T01:20:25;100269.33;;;4.98;100.00
46241;BME280;31961;52.416;-0.732;2023-02-22T01:22:56;100263.41;;;5.37;100.00
46241;BME280;31961;52.416;-0.732;2023-02-22T01:25:26;100258.45;;;5.45;100.00
46241;BME280;31961;52.416;-0.732;2023-02-22T01:27:55;100249.70;;;5.86;100.00
46241;BME280;31961;52.416;-0.732;2023-02-22T01:30:28;100247.01;;;5.79;100.00
46241;BME280;31961;52.416;-0.732;2023-02-22T01:32:56;100242.98;;;5.25;100.00
46241;BME280;31961;52.416;-0.732;2023-02-22T01:35:26;100245.30;;;5.28;100.00
46241;BME280;31961;52.416;-0.732;2023-02-22T01:37:53;100242.52;;;5.76;100.00
46241;BME280;31961;52.416;-0.732;2023-02-22T01:40:23;100246.68;;;6.28;100.00
46241;BME280;31961;52.416;-0.732;2023-02-22T01:42:53;100245.63;;;5.73;100.00
46241;BME280;31961;52.416;-0.732;2023-02-22T01:45:57;100245.22;;;4.88;100.00
46241;BME280;31961;52.416;-0.732;2023-02-22T01:48:30;100239.34;;;4.91;100.00
46241;BME280;31961;52.416;-0.732;2023-02-22T01:51:01;100242.25;;;5.61;100.00
46241;BME280;31961;52.416;-0.732;2023-02-22T01:53:33;100242.16;;;6.24;100.00
46241;BME280;31961;52.416;-0.732;2023-02-22T01:56:04;100242.66;;;5.69;100.00
46241;BME280;31961;52.416;-0.732;2023-02-22T01:58:33;100245.03;;;5.36;100.00
46241;BME280;31961;52.416;-0.732;2023-02-22T02:01:01;100245.01;;;3.37;100.00
46241;BME280;31961;52.416;-0.732;2023-02-22T02:03:31;100247.72;;;3.56;100.00
46241;BME280;31961;52.416;-0.732;2023-02-22T02:06:01;100234.92;;;3.79;100.00
46241;BME280;31961;52.416;-0.732;2023-02-22T02:08:34;100235.00;;;3.60;100.00
46241;BME280;31961;52.416;-0.732;2023-02-22T02:11:05;100234.24;;;3.92;100.00
46241;BME280;31961;52.416;-0.732;2023-02-22T02:13:33;100233.97;;;3.86;100.00
46241;BME280;31961;52.416;-0.732;2023-02-22T02:16:01;100228.32;;;3.68;100.00
46241;BME280;31961;52.416;-0.732;2023-02-22T02:18:33;100231.09;;;3.59;100.00
46241;BME280;31961;52.416;-0.732;2023-02-22T02:21:33;100242.83;;;2.70;100.00
46241;BME280;31961;52.416;-0.732;2023-02-22T02:26:34;100246.14;;;3.53;100.00
46241;BME280;31961;52.416;-0.732;2023-02-22T02:29:23;100246.14;;;2.56;100.00
46241;BME280;31961;52.416;-0.732;2023-02-22T02:32:18;100237.34;;;3.52;100.00
46241;BME280;31961;52.416;-0.732;2023-02-22T02:34:49;100236.32;;;3.53;100.00
46241;BME280;31961;52.416;-0.732;2023-02-22T02:37:26;100245.14;;;2.18;100.00
46241;BME280;31961;52.416;-0.732;2023-02-22T02:40:00;100238.92;;;2.75;100.00
46241;BME280;31961;52.416;-0.732;2023-02-22T02:42:35;100225.46;;;3.64;100.00
46241;BME280;31961;52.416;-0.732;2023-02-22T02:45:08;100232.08;;;3.69;100.00
46241;BME280;31961;52.416;-0.732;2023-02-22T02:47:41;100232.62;;;2.98;100.00
46241;BME280;31961;52.416;-0.732;2023-02-22T02:50:15;100225.03;;;3.26;100.00
46241;BME280;31961;52.416;-0.732;2023-02-22T02:52:44;100231.48;;;3.03;100.00
46241;BME280;31961;52.416;-0.732;2023-02-22T02:55:13;100224.18;;;3.63;100.00
46241;BME280;31961;52.416;-0.732;2023-02-22T02:57:41;100225.14;;;3.31;100.00
46241;BME280;31961;52.416;-0.732;2023-02-22T03:00:09;100224.34;;;3.40;100.00
46241;BME280;31961;52.416;-0.732;2023-02-22T03:02:46;100221.16;;;3.23;100.00
46241;BME280;31961;52.416;-0.732;2023-02-22T03:05:38;100213.16;;;3.30;100.00
46241;BME280;31961;52.416;-0.732;2023-02-22T03:08:14;100212.38;;;3.19;100.00
46241;BME280;31961;52.416;-0.732;2023-02-22T03:10:52;100215.42;;;3.12;100.00
46241;BME280;31961;52.416;-0.732;2023-02-22T03:13:29;100209.12;;;3.90;100.00
46241;BME280;31961;52.416;-0.732;2023-02-22T03:16:07;100218.87;;;2.59;100.00
46241;BME280;31961;52.416;-0.732;2023-02-22T03:18:45;100218.59;;;2.90;100.00
46241;BME280;31961;52.416;-0.732;2023-02-22T03:21:22;100218.34;;;2.72;100.00
46241;BME280;31961;52.416;-0.732;2023-02-22T03:23:58;100207.98;;;2.94;100.00
46241;BME280;31961;52.416;-0.732;2023-02-22T03:26:30;100197.66;;;3.22;100.00
46241;BME280;31961;52.416;-0.732;2023-02-22T03:28:59;100199.91;;;3.52;100.00
46241;BME280;31961;52.416;-0.732;2023-02-22T03:31:31;100200.08;;;3.48;100.00
46241;BME280;31961;52.416;-0.732;2023-02-22T03:34:04;100202.64;;;2.69;100.00
46241;BME280;31961;52.416;-0.732;2023-02-22T03:36:36;100198.47;;;3.48;100.00
46241;BME280;31961;52.416;-0.732;2023-02-22T03:39:08;100196.61;;;2.31;100.00
46241;BME280;31961;52.416;-0.732;2023-02-22T03:41:37;100192.07;;;2.97;100.00
46241;BME280;31961;52.416;-0.732;2023-02-22T03:44:09;100189.54;;;3.22;100.00
46241;BME280;31961;52.416;-0.732;2023-02-22T03:46:38;100185.17;;;2.82;100.00
46241;BME280;31961;52.416;-0.732;2023-02-22T03:49:10;100180.53;;;3.55;100.00
46241;BME280;31961;52.416;-0.732;2023-02-22T03:51:40;100178.76;;;2.90;100.00
46241;BME280;31961;52.416;-0.732;2023-02-22T03:54:10;100178.29;;;2.50;100.00
46241;BME280;31961;52.416;-0.732;2023-02-22T03:56:42;100178.34;;;2.55;100.00
46241;BME280;31961;52.416;-0.732;2023-02-22T03:59:10;100175.75;;;2.85;100.00
46241;BME280;31961;52.416;-0.732;2023-02-22T04:01:37;100174.23;;;2.72;100.00
46241;BME280;31961;52.416;-0.732;2023-02-22T04:04:04;100176.41;;;2.21;100.00
46241;BME280;31961;52.416;-0.732;2023-02-22T04:06:31;100175.08;;;1.78;100.00
46241;BME280;31961;52.416;-0.732;2023-02-22T04:08:58;100178.01;;;1.86;100.00
46241;BME280;31961;52.416;-0.732;2023-02-22T04:11:25;100181.08;;;2.54;100.00
46241;BME280;31961;52.416;-0.732;2023-02-22T04:13:53;100174.19;;;2.18;100.00
46241;BME280;31961;52.416;-0.732;2023-02-22T04:16:20;100180.01;;;1.91;100.00
46241;BME280;31961;52.416;-0.732;2023-02-22T04:18:47;100171.02;;;2.44;100.00
46241;BME280;31961;52.416;-0.732;2023-02-22T04:21:14;100170.84;;;2.32;100.00
46241;BME280;31961;52.416;-0.732;2023-02-22T04:23:42;100170.35;;;2.38;100.00
46241;BME280;31961;52.416;-0.732;2023-02-22T04:26:09;100161.58;;;2.89;100.00
46241;BME280;31961;52.416;-0.732;2023-02-22T04:28:36;100160.13;;;2.31;100.00
46241;BME280;31961;52.416;-0.732;2023-02-22T04:31:04;100162.20;;;3.14;100.00
46241;BME280;31961;52.416;-0.732;2023-02-22T04:33:31;100159.67;;;3.13;100.00
46241;BME280;31961;52.416;-0.732;2023-02-22T04:35:58;100170.04;;;1.60;100.00
46241;BME280;31961;52.416;-0.732;2023-02-22T04:38:26;100164.99;;;2.45;100.00
46241;BME280;31961;52.416;-0.732;2023-02-22T04:40:56;100166.50;;;2.19;100.00
46241;BME280;31961;52.416;-0.732;2023-02-22T04:43:23;100156.29;;;2.88;100.00
46241;BME280;31961;52.416;-0.732;2023-02-22T04:45:50;100144.57;;;2.78;100.00
46241;BME280;31961;52.416;-0.732;2023-02-22T04:48:18;100146.07;;;2.84;100.00
46241;BME280;31961;52.416;-0.732;2023-02-22T04:50:45;100139.44;;;2.85;100.00
46241;BME280;31961;52.416;-0.732;2023-02-22T04:53:12;100143.77;;;2.72;100.00
46241;BME280;31961;52.416;-0.732;2023-02-22T04:55:40;100142.01;;;3.08;100.00
46241;BME280;31961;52.416;-0.732;2023-02-22T04:58:07;100142.62;;;2.75;100.00
46241;BME280;31961;52.416;-0.732;2023-02-22T05:00:35;100136.74;;;2.79;100.00
46241;BME280;31961;52.416;-0.732;2023-02-22T05:03:02;100132.43;;;3.04;100.00
46241;BME280;31961;52.416;-0.732;2023-02-22T05:05:29;100132.15;;;2.71;100.00
46241;BME280;31961;52.416;-0.732;2023-02-22T05:07:56;100131.18;;;2.15;100.00
46241;BME280;31961;52.416;-0.732;2023-02-22T05:10:23;100129.63;;;2.89;100.00
46241;BME280;31961;52.416;-0.732;2023-02-22T05:12:50;100129.97;;;2.07;100.00
46241;BME280;31961;52.416;-0.732;2023-02-22T05:15:20;100121.16;;;3.11;100.00
46241;BME280;31961;52.416;-0.732;2023-02-22T05:17:47;100128.40;;;1.83;100.00
46241;BME280;31961;52.416;-0.732;2023-02-22T05:20:21;100133.68;;;2.03;100.00
46241;BME280;31961;52.416;-0.732;2023-02-22T05:22:49;100133.18;;;2.69;100.00
46241;BME280;31961;52.416;-0.732;2023-02-22T05:25:17;100127.39;;;3.08;100.00
46241;BME280;31961;52.416;-0.732;2023-02-22T05:27:46;100124.77;;;3.27;100.00
46241;BME280;31961;52.416;-0.732;2023-02-22T05:30:15;100115.17;;;3.50;100.00
46241;BME280;31961;52.416;-0.732;2023-02-22T05:32:42;100118.89;;;2.32;100.00
46241;BME280;31961;52.416;-0.732;2023-02-22T05:35:09;100118.13;;;2.93;100.00
46241;BME280;31961;52.416;-0.732;2023-02-22T05:37:36;100119.03;;;2.89;100.00
46241;BME280;31961;52.416;-0.732;2023-02-22T05:40:04;100116.11;;;2.89;100.00
46241;BME280;31961;52.416;-0.732;2023-02-22T05:42:32;100114.90;;;3.01;100.00
46241;BME280;31961;52.416;-0.732;2023-02-22T05:44:59;100114.34;;;3.32;100.00
46241;BME280;31961;52.416;-0.732;2023-02-22T05:47:27;100117.96;;;2.35;100.00
46241;BME280;31961;52.416;-0.732;2023-02-22T05:49:54;100116.27;;;2.71;100.00
46241;BME280;31961;52.416;-0.732;2023-02-22T05:52:22;100115.35;;;3.03;100.00
46241;BME280;31961;52.416;-0.732;2023-02-22T05:54:49;100109.89;;;3.59;100.00
46241;BME280;31961;52.416;-0.732;2023-02-22T05:57:17;100105.48;;;3.94;100.00
46241;BME280;31961;52.416;-0.732;2023-02-22T05:59:44;100102.44;;;3.17;100.00
46241;BME280;31961;52.416;-0.732;2023-02-22T06:02:11;100106.52;;;3.29;100.00
46241;BME280;31961;52.416;-0.732;2023-02-22T06:04:38;100111.17;;;2.75;100.00
46241;BME280;31961;52.416;-0.732;2023-02-22T06:07:05;100111.61;;;3.28;100.00
46241;BME280;31961;52.416;-0.732;2023-02-22T06:09:33;100111.87;;;2.65;100.00
46241;BME280;31961;52.416;-0.732;2023-02-22T06:12:00;100119.79;;;2.37;100.00
46241;BME280;31961;52.416;-0.732;2023-02-22T06:14:28;100112.00;;;2.27;100.00
46241;BME280;31961;52.416;-0.732;2023-02-22T06:16:56;100114.28;;;3.05;100.00
46241;BME280;31961;52.416;-0.732;2023-02-22T06:19:24;100109.73;;;2.38;100.00
46241;BME280;31961;52.416;-0.732;2023-02-22T06:21:52;100114.84;;;2.28;100.00
46241;BME280;31961;52.416;-0.732;2023-02-22T06:24:20;100107.29;;;2.71;100.00
46241;BME280;31961;52.416;-0.732;2023-02-22T06:26:54;100110.44;;;1.94;100.00
46241;BME280;31961;52.416;-0.732;2023-02-22T06:29:22;100103.50;;;2.39;100.00
46241;BME280;31961;52.416;-0.732;2023-02-22T06:31:49;100113.18;;;1.40;100.00
46241;BME280;31961;52.416;-0.732;2023-02-22T06:34:16;100110.32;;;2.11;100.00
46241;BME280;31961;52.416;-0.732;2023-02-22T06:36:44;100107.05;;;2.07;100.00
46241;BME280;31961;52.416;-0.732;2023-02-22T06:39:11;100101.86;;;2.34;100.00
46241;BME280;31961;52.416;-0.732;2023-02-22T06:41:39;100110.51;;;1.64;100.00
46241;BME280;31961;52.416;-0.732;2023-02-22T06:44:06;100102.73;;;2.43;100.00
46241;BME280;31961;52.416;-0.732;2023-02-22T06:46:34;100108.91;;;2.31;100.00
46241;BME280;31961;52.416;-0.732;2023-02-22T06:49:01;100095.94;;;3.28;100.00
46241;BME280;31961;52.416;-0.732;2023-02-22T06:51:29;100095.67;;;3.03;100.00
46241;BME280;31961;52.416;-0.732;2023-02-22T06:53:56;100097.17;;;3.01;100.00
46241;BME280;31961;52.416;-0.732;2023-02-22T06:56:23;100098.53;;;3.45;100.00
46241;BME280;31961;52.416;-0.732;2023-02-22T06:58:51;100098.01;;;2.22;100.00
46241;BME280;31961;52.416;-0.732;2023-02-22T07:01:18;100112.12;;;1.73;100.00
46241;BME280;31961;52.416;-0.732;2023-02-22T07:03:45;100106.11;;;3.17;100.00
46241;BME280;31961;52.416;-0.732;2023-02-22T07:06:14;100104.19;;;3.15;100.00
46241;BME280;31961;52.416;-0.732;2023-02-22T07:08:41;100097.84;;;3.28;100.00
46241;BME280;31961;52.416;-0.732;2023-02-22T07:11:09;100100.60;;;2.38;100.00
46241;BME280;31961;52.416;-0.732;2023-02-22T07:13:36;100108.75;;;1.99;100.00
46241;BME280;31961;52.416;-0.732;2023-02-22T07:16:04;100106.02;;;2.56;100.00
46241;BME280;31961;52.416;-0.732;2023-02-22T07:18:31;100096.12;;;2.18;100.00
46241;BME280;31961;52.416;-0.732;2023-02-22T07:20:58;100095.47;;;3.39;100.00
46241;BME280;31961;52.416;-0.732;2023-02-22T07:23:26;100090.05;;;3.35;100.00
46241;BME280;31961;52.416;-0.732;2023-02-22T07:25:53;100098.01;;;2.65;100.00
46241;BME280;31961;52.416;-0.732;2023-02-22T07:28:20;100092.17;;;3.74;100.00
46241;BME280;31961;52.416;-0.732;2023-02-22T07:30:47;100087.42;;;3.95;100.00
46241;BME280;31961;52.416;-0.732;2023-02-22T07:33:14;100095.17;;;3.11;100.00
46241;BME280;31961;52.416;-0.732;2023-02-22T07:35:44;100092.29;;;3.08;100.00
46241;BME280;31961;52.416;-0.732;2023-02-22T07:38:13;100103.62;;;2.70;100.00
46241;BME280;31961;52.416;-0.732;2023-02-22T07:40:41;100099.91;;;3.54;100.00
46241;BME280;31961;52.416;-0.732;2023-02-22T07:43:14;100103.01;;;2.84;100.00
46241;BME280;31961;52.416;-0.732;2023-02-22T07:45:42;100112.75;;;2.12;100.00
46241;BME280;31961;52.416;-0.732;2023-02-22T07:48:11;100110.43;;;3.46;100.00
46241;BME280;31961;52.416;-0.732;2023-02-22T07:50:39;100112.16;;;3.10;100.00
46241;BME280;31961;52.416;-0.732;2023-02-22T07:53:12;100117.95;;;2.49;100.00
46241;BME280;31961;52.416;-0.732;2023-02-22T07:55:39;100129.09;;;1.60;100.00
46241;BME280;31961;52.416;-0.732;2023-02-22T07:58:11;100124.04;;;2.60;100.00
46241;BME280;31961;52.416;-0.732;2023-02-22T08:00:39;100124.00;;;2.36;100.00
46241;BME280;31961;52.416;-0.732;2023-02-22T08:03:08;100118.97;;;3.21;100.00
46241;BME280;31961;52.416;-0.732;2023-02-22T08:05:38;100127.82;;;2.33;100.00
46241;BME280;31961;52.416;-0.732;2023-02-22T08:08:06;100132.36;;;2.68;100.00
46241;BME280;31961;52.416;-0.732;2023-02-22T08:10:34;100134.05;;;2.04;100.00
46241;BME280;31961;52.416;-0.732;2023-02-22T08:13:03;100136.33;;;2.00;100.00
46241;BME280;31961;52.416;-0.732;2023-02-22T08:15:32;100141.48;;;2.00;100.00
46241;BME280;31961;52.416;-0.732;2023-02-22T08:18:01;100144.37;;;1.45;100.00
46241;BME280;31961;52.416;-0.732;2023-02-22T08:20:29;100142.79;;;2.02;100.00
46241;BME280;31961;52.416;-0.732;2023-02-22T08:22:57;100145.08;;;1.96;100.00
46241;BME280;31961;52.416;-0.732;2023-02-22T08:25:27;100144.22;;;1.94;100.00
46241;BME280;31961;52.416;-0.732;2023-02-22T08:27:57;100135.97;;;2.61;100.00
46241;BME280;31961;52.416;-0.732;2023-02-22T08:30:27;100136.01;;;2.11;100.00
46241;BME280;31961;52.416;-0.732;2023-02-22T08:32:55;100136.98;;;2.67;100.00
46241;BME280;31961;52.416;-0.732;2023-02-22T08:35:22;100128.54;;;2.40;100.00
46241;BME280;31961;52.416;-0.732;2023-02-22T08:37:52;100134.64;;;2.58;100.00
46241;BME280;31961;52.416;-0.732;2023-02-22T08:40:21;100140.59;;;2.33;100.00
46241;BME280;31961;52.416;-0.732;2023-02-22T08:42:48;100136.11;;;2.69;100.00
46241;BME280;31961;52.416;-0.732;2023-02-22T08:45:16;100134.80;;;3.02;100.00
46241;BME280;31961;52.416;-0.732;2023-02-22T08:47:44;100140.21;;;2.30;100.00
46241;BME280;31961;52.416;-0.732;2023-02-22T08:50:16;100142.77;;;2.39;100.00
46241;BME280;31961;52.416;-0.732;2023-02-22T08:52:45;100144.78;;;2.58;100.00
46241;BME280;31961;52.416;-0.732;2023-02-22T08:55:12;100144.82;;;2.98;100.00
46241;BME280;31961;52.416;-0.732;2023-02-22T08:57:40;100140.12;;;3.63;100.00
46241;BME280;31961;52.416;-0.732;2023-02-22T09:00:08;100144.44;;;2.62;100.00
46241;BME280;31961;52.416;-0.732;2023-02-22T09:02:35;100137.75;;;2.42;100.00
46241;BME280;31961;52.416;-0.732;2023-02-22T09:05:03;100137.26;;;2.84;100.00
46241;BME280;31961;52.416;-0.732;2023-02-22T09:07:30;100133.11;;;3.62;100.00
46241;BME280;31961;52.416;-0.732;2023-02-22T09:09:57;100136.70;;;3.84;100.00
46241;BME280;31961;52.416;-0.732;2023-02-22T09:12:24;100137.65;;;2.95;100.00
46241;BME280;31961;52.416;-0.732;2023-02-22T09:14:51;100138.83;;;2.91;100.00
46241;BME280;31961;52.416;-0.732;2023-02-22T09:17:18;100139.73;;;3.27;100.00
46241;BME280;31961;52.416;-0.732;2023-02-22T09:19:45;100136.53;;;2.62;100.00
46241;BME280;31961;52.416;-0.732;2023-02-22T09:22:12;100136.26;;;2.34;100.00
46241;BME280;31961;52.416;-0.732;2023-02-22T09:24:40;100140.49;;;2.84;100.00
46241;BME280;31961;52.416;-0.732;2023-02-22T09:27:07;100142.09;;;2.51;100.00
46241;BME280;31961;52.416;-0.732;2023-02-22T09:29:34;100150.85;;;2.29;100.00
46241;BME280;31961;52.416;-0.732;2023-02-22T09:32:02;100154.02;;;2.15;100.00
46241;BME280;31961;52.416;-0.732;2023-02-22T09:34:29;100153.48;;;2.77;100.00
46241;BME280;31961;52.416;-0.732;2023-02-22T09:36:56;100152.64;;;3.05;100.00
46241;BME280;31961;52.416;-0.732;2023-02-22T09:39:23;100151.13;;;2.86;100.00
46241;BME280;31961;52.416;-0.732;2023-02-22T09:41:59;100154.21;;;3.20;100.00
46241;BME280;31961;52.416;-0.732;2023-02-22T09:44:34;100146.04;;;2.95;100.00
46241;BME280;31961;52.416;-0.732;2023-02-22T09:47:03;100146.71;;;2.63;100.00
46241;BME280;31961;52.416;-0.732;2023-02-22T09:49:34;100141.76;;;3.56;100.00
46241;BME280;31961;52.416;-0.732;2023-02-22T09:52:06;100145.22;;;3.87;100.00
46241;BME280;31961;52.416;-0.732;2023-02-22T09:54:39;100146.26;;;3.68;100.00
46241;BME280;31961;52.416;-0.732;2023-02-22T09:57:12;100143.42;;;3.60;100.00
46241;BME280;31961;52.416;-0.732;2023-02-22T09:59:43;100144.18;;;3.59;100.00
46241;BME280;31961;52.416;-0.732;2023-02-22T10:02:22;100149.77;;;2.88;100.00
46241;BME280;31961;52.416;-0.732;2023-02-22T10:04:55;100150.43;;;2.30;100.00
46241;BME280;31961;52.416;-0.732;2023-02-22T10:07:30;100148.83;;;3.06;100.00
46241;BME280;31961;52.416;-0.732;2023-02-22T10:09:58;100147.51;;;3.17;100.00
46241;BME280;31961;52.416;-0.732;2023-02-22T10:12:31;100151.52;;;3.06;100.00
46241;BME280;31961;52.416;-0.732;2023-02-22T10:15:39;100156.17;;;3.04;100.00
46241;BME280;31961;52.416;-0.732;2023-02-22T10:18:29;100163.32;;;2.66;100.00
46241;BME280;31961;52.416;-0.732;2023-02-22T10:21:04;100159.15;;;3.44;100.00
46241;BME280;31961;52.416;-0.732;2023-02-22T10:23:40;100158.51;;;3.24;100.00
46241;BME280;31961;52.416;-0.732;2023-02-22T10:26:15;100169.29;;;2.60;100.00
46241;BME280;31961;52.416;-0.732;2023-02-22T10:28:48;100162.72;;;3.51;100.00
46241;BME280;31961;52.416;-0.732;2023-02-22T10:31:24;100160.56;;;3.17;100.00
46241;BME280;31961;52.416;-0.732;2023-02-22T10:33:57;100159.59;;;3.91;100.00
46241;BME280;31961;52.416;-0.732;2023-02-22T10:36:26;100160.56;;;3.72;100.00
46241;BME280;31961;52.416;-0.732;2023-02-22T10:38:57;100161.75;;;4.01;100.00
46241;BME280;31961;52.416;-0.732;2023-02-22T10:41:28;100163.57;;;3.72;100.00
46241;BME280;31961;52.416;-0.732;2023-02-22T10:43:56;100167.04;;;3.31;100.00
46241;BME280;31961;52.416;-0.732;2023-02-22T10:46:26;100165.76;;;3.88;100.00
46241;BME280;31961;52.416;-0.732;2023-02-22T10:48:56;100166.56;;;3.51;100.00
46241;BME280;31961;52.416;-0.732;2023-02-22T10:51:26;100170.86;;;3.29;100.00
46241;BME280;31961;52.416;-0.732;2023-02-22T10:53:58;100170.81;;;3.53;100.00
46241;BME280;31961;52.416;-0.732;2023-02-22T10:56:45;100172.11;;;3.53;100.00
46241;BME280;31961;52.416;-0.732;2023-02-22T10:59:26;100174.48;;;3.44;100.00
46241;BME280;31961;52.416;-0.732;2023-02-22T11:01:54;100182.47;;;3.14;100.00
46241;BME280;31961;52.416;-0.732;2023-02-22T11:04:22;100182.42;;;2.76;100.00
46241;BME280;31961;52.416;-0.732;2023-02-22T11:07:07;100183.61;;;2.97;100.00
46241;BME280;31961;52.416;-0.732;2023-02-22T11:09:46;100185.76;;;2.91;100.00
46241;BME280;31961;52.416;-0.732;2023-02-22T11:12:18;100180.49;;;3.17;100.00
46241;BME280;31961;52.416;-0.732;2023-02-22T11:14:46;100185.49;;;3.15;100.00
46241;BME280;31961;52.416;-0.732;2023-02-22T11:17:18;100181.61;;;3.61;100.00
46241;BME280;31961;52.416;-0.732;2023-02-22T11:19:49;100179.80;;;3.32;100.00
46241;BME280;31961;52.416;-0.732;2023-02-22T11:22:22;100183.93;;;3.32;100.00
46241;BME280;31961;52.416;-0.732;2023-02-22T11:24:52;100183.01;;;3.53;100.00
46241;BME280;31961;52.416;-0.732;2023-02-22T11:27:27;100187.23;;;3.49;100.00
46241;BME280;31961;52.416;-0.732;2023-02-22T11:30:06;100182.93;;;3.23;100.00
46241;BME280;31961;52.416;-0.732;2023-02-22T11:32:34;100191.63;;;3.37;100.00
46241;BME280;31961;52.416;-0.732;2023-02-22T11:35:18;100193.47;;;3.66;100.00
46241;BME280;31961;52.416;-0.732;2023-02-22T11:37:45;100192.26;;;4.16;100.00
46241;BME280;31961;52.416;-0.732;2023-02-22T11:40:15;100191.01;;;3.43;100.00
46241;BME280;31961;52.416;-0.732;2023-02-22T11:42:43;100187.30;;;3.92;100.00
46241;BME280;31961;52.416;-0.732;2023-02-22T11:45:13;100187.29;;;3.53;100.00
46241;BME280;31961;52.416;-0.732;2023-02-22T11:47:51;100190.06;;;3.41;100.00
46241;BME280;31961;52.416;-0.732;2023-02-22T11:50:25;100183.80;;;3.18;100.00
46241;BME280;31961;52.416;-0.732;2023-02-22T11:53:03;100183.98;;;4.30;100.00
46241;BME280;31961;52.416;-0.732;2023-02-22T11:55:36;100179.40;;;3.87;100.00
46241;BME280;31961;52.416;-0.732;2023-02-22T11:58:27;100182.89;;;4.48;100.00
46241;BME280;31961;52.416;-0.732;2023-02-22T12:01:01;100171.67;;;4.33;100.00
46241;BME280;31961;52.416;-0.732;2023-02-22T12:03:44;100173.63;;;4.46;100.00
46241;BME280;31961;52.416;-0.732;2023-02-22T12:06:22;100170.41;;;4.52;100.00
46241;BME280;31961;52.416;-0.732;2023-02-22T12:09:04;100169.45;;;4.91;100.00
46241;BME280;31961;52.416;-0.732;2023-02-22T12:11:41;100179.72;;;4.52;100.00
46241;BME280;31961;52.416;-0.732;2023-02-22T12:14:20;100186.52;;;4.18;100.00
46241;BME280;31961;52.416;-0.732;2023-02-22T12:17:05;100188.80;;;3.56;100.00
46241;BME280;31961;52.416;-0.732;2023-02-22T12:19:38;100199.43;;;3.24;100.00
46241;BME280;31961;52.416;-0.732;2023-02-22T12:22:11;100201.49;;;3.12;100.00
46241;BME280;31961;52.416;-0.732;2023-02-22T12:24:42;100203.78;;;3.36;100.00
46241;BME280;31961;52.416;-0.732;2023-02-22T12:27:16;100202.65;;;3.53;100.00
46241;BME280;31961;52.416;-0.732;2023-02-22T12:29:49;100198.81;;;3.59;100.00
46241;BME280;31961;52.416;-0.732;2023-02-22T12:32:23;100198.14;;;4.10;100.00
46241;BME280;31961;52.416;-0.732;2023-02-22T12:34:58;100199.10;;;3.65;100.00
46241;BME280;31961;52.416;-0.732;2023-02-22T12:37:30;100198.55;;;3.78;100.00
46241;BME280;31961;52.416;-0.732;2023-02-22T12:40:05;100200.42;;;3.64;100.00
46241;BME280;31961;52.416;-0.732;2023-02-22T12:42:46;100196.76;;;3.60;100.00
46241;BME280;31961;52.416;-0.732;2023-02-22T12:45:25;100192.50;;;3.85;100.00
46241;BME280;31961;52.416;-0.732;2023-02-22T12:48:03;100198.07;;;3.98;100.00
46241;BME280;31961;52.416;-0.732;2023-02-22T12:50:34;100198.43;;;3.70;100.00
46241;BME280;31961;52.416;-0.732;2023-02-22T12:53:10;100196.79;;;3.76;100.00
46241;BME280;31961;52.416;-0.732;2023-02-22T12:55:43;100199.29;;;4.31;100.00
46241;BME280;31961;52.416;-0.732;2023-02-22T12:58:20;100198.39;;;3.71;100.00
46241;BME280;31961;52.416;-0.732;2023-02-22T13:00:54;100198.16;;;3.95;100.00